sensor_id;sensor_type;location;lat;lon;timestamp;P1;durP1;ratioP1;P2;durP2;ratioP2
18796;SDS011;9526;52.612;13.300;2023-08-31T00:00:39;5.88;;;4.50;;
18796;SDS011;9526;52.612;13.300;2023-08-31T00:03:03;6.15;;;4.75;;
18796;SDS011;9526;52.612;13.300;2023-08-31T00:05:27;8.23;;;4.70;;
18796;SDS011;9526;52.612;13.300;2023-08-31T00:07:52;8.90;;;5.10;;
18796;SDS011;9526;52.612;13.300;2023-08-31T00:10:15;6.40;;;4.80;;
18796;SDS011;9526;52.612;13.300;2023-08-31T00:12:40;7.22;;;4.68;;
18796;SDS011;9526;52.612;13.300;2023-08-31T00:15:06;5.35;;;4.18;;
18796;SDS011;9526;52.612;13.300;2023-08-31T00:17:30;5.63;;;4.50;;
18796;SDS011;9526;52.612;13.300;2023-08-31T00:19:54;6.10;;;4.78;;
18796;SDS011;9526;52.612;13.300;2023-08-31T00:22:18;7.00;;;4.35;;
18796;SDS011;9526;52.612;13.300;2023-08-31T00:24:41;6.22;;;4.10;;
18796;SDS011;9526;52.612;13.300;2023-08-31T00:27:05;5.75;;;4.55;;
18796;SDS011;9526;52.612;13.300;2023-08-31T00:29:29;6.03;;;4.30;;
18796;SDS011;9526;52.612;13.300;2023-08-31T00:31:54;7.00;;;5.03;;
18796;SDS011;9526;52.612;13.300;2023-08-31T00:34:17;5.85;;;4.30;;
18796;SDS011;9526;52.612;13.300;2023-08-31T00:36:41;7.80;;;4.40;;
18796;SDS011;9526;52.612;13.300;2023-08-31T00:39:05;5.75;;;4.72;;
18796;SDS011;9526;52.612;13.300;2023-08-31T00:41:33;7.68;;;4.43;;
18796;SDS011;9526;52.612;13.300;2023-08-31T00:43:57;5.15;;;4.32;;
18796;SDS011;9526;52.612;13.300;2023-08-31T00:46:21;6.25;;;4.28;;
18796;SDS011;9526;52.612;13.300;2023-08-31T00:48:46;6.72;;;4.80;;
18796;SDS011;9526;52.612;13.300;2023-08-31T00:51:10;6.82;;;5.25;;
18796;SDS011;9526;52.612;13.300;2023-08-31T00:53:35;6.00;;;4.50;;
18796;SDS011;9526;52.612;13.300;2023-08-31T00:56:00;9.38;;;5.38;;
18796;SDS011;9526;52.612;13.300;2023-08-31T00:58:26;7.38;;;5.35;;
18796;SDS011;9526;52.612;13.300;2023-08-31T01:00:54;8.48;;;4.97;;
18796;SDS011;9526;52.612;13.300;2023-08-31T01:03:28;6.43;;;4.75;;
18796;SDS011;9526;52.612;13.300;2023-08-31T01:06:01;9.88;;;5.90;;
18796;SDS011;9526;52.612;13.300;2023-08-31T01:08:33;8.77;;;6.03;;
18796;SDS011;9526;52.612;13.300;2023-08-31T01:11:05;7.78;;;5.30;;
18796;SDS011;9526;52.612;13.300;2023-08-31T01:13:38;7.22;;;5.80;;
18796;SDS011;9526;52.612;13.300;2023-08-31T01:16:06;8.90;;;5.28;;
18796;SDS011;9526;52.612;13.300;2023-08-31T01:18:31;7.90;;;5.55;;
18796;SDS011;9526;52.612;13.300;2023-08-31T01:20:58;7.05;;;5.43;;
18796;SDS011;9526;52.612;13.300;2023-08-31T01:23:39;7.50;;;5.22;;
18796;SDS011;9526;52.612;13.300;2023-08-31T01:26:12;8.80;;;5.15;;
18796;SDS011;9526;52.612;13.300;2023-08-31T01:28:36;9.63;;;5.13;;
18796;SDS011;9526;52.612;13.300;2023-08-31T01:31:03;7.95;;;4.97;;
18796;SDS011;9526;52.612;13.300;2023-08-31T01:33:27;6.22;;;4.85;;
18796;SDS011;9526;52.612;13.300;2023-08-31T01:35:51;8.30;;;4.93;;
18796;SDS011;9526;52.612;13.300;2023-08-31T01:38:18;5.38;;;4.35;;
18796;SDS011;9526;52.612;13.300;2023-08-31T01:40:50;6.10;;;4.50;;
18796;SDS011;9526;52.612;13.300;2023-08-31T01:43:17;7.65;;;4.25;;
18796;SDS011;9526;52.612;13.300;2023-08-31T01:45:42;6.97;;;4.10;;
18796;SDS011;9526;52.612;13.300;2023-08-31T01:48:06;5.32;;;3.20;;
18796;SDS011;9526;52.612;13.300;2023-08-31T01:50:30;6.57;;;4.13;;
18796;SDS011;9526;52.612;13.300;2023-08-31T01:52:54;4.85;;;3.40;;
18796;SDS011;9526;52.612;13.300;2023-08-31T01:55:18;5.60;;;3.80;;
18796;SDS011;9526;52.612;13.300;2023-08-31T01:57:44;5.25;;;3.67;;
18796;SDS011;9526;52.612;13.300;2023-08-31T02:00:13;4.82;;;3.35;;
18796;SDS011;9526;52.612;13.300;2023-08-31T02:02:41;4.60;;;3.08;;
18796;SDS011;9526;52.612;13.300;2023-08-31T02:05:06;3.80;;;2.70;;
18796;SDS011;9526;52.612;13.300;2023-08-31T02:07:31;4.90;;;2.85;;
18796;SDS011;9526;52.612;13.300;2023-08-31T02:09:56;4.70;;;2.72;;
18796;SDS011;9526;52.612;13.300;2023-08-31T02:12:19;3.55;;;2.78;;
18796;SDS011;9526;52.612;13.300;2023-08-31T02:14:44;2.97;;;2.50;;
18796;SDS011;9526;52.612;13.300;2023-08-31T02:17:08;3.55;;;2.50;;
18796;SDS011;9526;52.612;13.300;2023-08-31T02:19:32;3.22;;;2.70;;
18796;SDS011;9526;52.612;13.300;2023-08-31T02:21:55;3.05;;;2.50;;
18796;SDS011;9526;52.612;13.300;2023-08-31T02:24:19;2.95;;;2.50;;
18796;SDS011;9526;52.612;13.300;2023-08-31T02:26:43;3.53;;;2.30;;
18796;SDS011;9526;52.612;13.300;2023-08-31T02:29:07;3.47;;;2.40;;
18796;SDS011;9526;52.612;13.300;2023-08-31T02:31:32;3.78;;;2.25;;
18796;SDS011;9526;52.612;13.300;2023-08-31T02:33:55;3.45;;;2.10;;
18796;SDS011;9526;52.612;13.300;2023-08-31T02:36:20;3.22;;;2.67;;
18796;SDS011;9526;52.612;13.300;2023-08-31T02:38:43;3.75;;;2.70;;
18796;SDS011;9526;52.612;13.300;2023-08-31T02:41:08;3.17;;;2.38;;
18796;SDS011;9526;52.612;13.300;2023-08-31T02:43:31;3.00;;;2.17;;
18796;SDS011;9526;52.612;13.300;2023-08-31T02:45:59;2.58;;;2.10;;
18796;SDS011;9526;52.612;13.300;2023-08-31T02:48:25;4.38;;;2.30;;
18796;SDS011;9526;52.612;13.300;2023-08-31T02:50:49;2.35;;;2.10;;
18796;SDS011;9526;52.612;13.300;2023-08-31T02:53:13;4.50;;;2.30;;
18796;SDS011;9526;52.612;13.300;2023-08-31T02:55:37;2.92;;;2.35;;
18796;SDS011;9526;52.612;13.300;2023-08-31T02:58:01;3.40;;;2.50;;
18796;SDS011;9526;52.612;13.300;2023-08-31T03:00:25;3.70;;;2.30;;
18796;SDS011;9526;52.612;13.300;2023-08-31T03:02:49;2.42;;;2.22;;
18796;SDS011;9526;52.612;13.300;2023-08-31T03:05:15;3.70;;;2.30;;
18796;SDS011;9526;52.612;13.300;2023-08-31T03:07:39;4.75;;;2.38;;
18796;SDS011;9526;52.612;13.300;2023-08-31T03:10:03;3.20;;;2.10;;
18796;SDS011;9526;52.612;13.300;2023-08-31T03:12:28;3.35;;;2.30;;
18796;SDS011;9526;52.612;13.300;2023-08-31T03:14:51;3.65;;;2.33;;
18796;SDS011;9526;52.612;13.300;2023-08-31T03:17:15;3.05;;;2.35;;
18796;SDS011;9526;52.612;13.300;2023-08-31T03:19:39;2.35;;;1.92;;
18796;SDS011;9526;52.612;13.300;2023-08-31T03:22:06;3.53;;;2.40;;
18796;SDS011;9526;52.612;13.300;2023-08-31T03:24:31;3.38;;;2.45;;
18796;SDS011;9526;52.612;13.300;2023-08-31T03:26:55;3.38;;;2.05;;
18796;SDS011;9526;52.612;13.300;2023-08-31T03:29:20;3.55;;;2.00;;
18796;SDS011;9526;52.612;13.300;2023-08-31T03:31:45;4.15;;;2.20;;
18796;SDS011;9526;52.612;13.300;2023-08-31T03:34:10;2.75;;;2.20;;
18796;SDS011;9526;52.612;13.300;2023-08-31T03:36:34;3.13;;;2.40;;
18796;SDS011;9526;52.612;13.300;2023-08-31T03:38:59;3.58;;;2.42;;
18796;SDS011;9526;52.612;13.300;2023-08-31T03:41:23;2.70;;;2.10;;
18796;SDS011;9526;52.612;13.300;2023-08-31T03:43:47;2.90;;;2.22;;
18796;SDS011;9526;52.612;13.300;2023-08-31T03:46:15;2.65;;;2.20;;
18796;SDS011;9526;52.612;13.300;2023-08-31T03:48:39;3.33;;;2.20;;
18796;SDS011;9526;52.612;13.300;2023-08-31T03:51:04;3.35;;;2.10;;
18796;SDS011;9526;52.612;13.300;2023-08-31T03:53:28;2.70;;;2.30;;
18796;SDS011;9526;52.612;13.300;2023-08-31T03:55:54;3.80;;;2.38;;
18796;SDS011;9526;52.612;13.300;2023-08-31T03:58:18;4.13;;;2.72;;
18796;SDS011;9526;52.612;13.300;2023-08-31T04:00:45;3.67;;;2.65;;
18796;SDS011;9526;52.612;13.300;2023-08-31T04:03:13;4.78;;;2.40;;
18796;SDS011;9526;52.612;13.300;2023-08-31T04:05:37;3.53;;;2.70;;
18796;SDS011;9526;52.612;13.300;2023-08-31T04:08:01;3.17;;;2.60;;
18796;SDS011;9526;52.612;13.300;2023-08-31T04:10:28;3.75;;;2.65;;
18796;SDS011;9526;52.612;13.300;2023-08-31T04:12:54;4.20;;;3.00;;
18796;SDS011;9526;52.612;13.300;2023-08-31T04:15:18;4.57;;;2.85;;
18796;SDS011;9526;52.612;13.300;2023-08-31T04:17:42;5.50;;;3.17;;
18796;SDS011;9526;52.612;13.300;2023-08-31T04:20:06;3.95;;;2.88;;
18796;SDS011;9526;52.612;13.300;2023-08-31T04:22:31;5.22;;;3.60;;
18796;SDS011;9526;52.612;13.300;2023-08-31T04:24:55;4.80;;;3.22;;
18796;SDS011;9526;52.612;13.300;2023-08-31T04:27:19;4.85;;;3.30;;
18796;SDS011;9526;52.612;13.300;2023-08-31T04:29:44;5.72;;;3.20;;
18796;SDS011;9526;52.612;13.300;2023-08-31T04:32:07;5.82;;;3.65;;
18796;SDS011;9526;52.612;13.300;2023-08-31T04:34:31;7.38;;;3.47;;
18796;SDS011;9526;52.612;13.300;2023-08-31T04:36:55;6.55;;;3.58;;
18796;SDS011;9526;52.612;13.300;2023-08-31T04:39:18;5.95;;;3.60;;
18796;SDS011;9526;52.612;13.300;2023-08-31T04:41:42;5.82;;;3.80;;
18796;SDS011;9526;52.612;13.300;2023-08-31T04:44:06;5.60;;;3.63;;
18796;SDS011;9526;52.612;13.300;2023-08-31T04:46:31;6.50;;;4.00;;
18796;SDS011;9526;52.612;13.300;2023-08-31T04:48:55;5.80;;;4.25;;
18796;SDS011;9526;52.612;13.300;2023-08-31T04:51:29;5.32;;;3.95;;
18796;SDS011;9526;52.612;13.300;2023-08-31T04:53:55;6.95;;;4.13;;
18796;SDS011;9526;52.612;13.300;2023-08-31T04:56:18;5.88;;;4.28;;
18796;SDS011;9526;52.612;13.300;2023-08-31T04:58:42;6.18;;;4.18;;
18796;SDS011;9526;52.612;13.300;2023-08-31T05:01:06;7.35;;;4.55;;
18796;SDS011;9526;52.612;13.300;2023-08-31T05:03:32;9.07;;;5.30;;
18796;SDS011;9526;52.612;13.300;2023-08-31T05:05:56;7.47;;;4.85;;
18796;SDS011;9526;52.612;13.300;2023-08-31T05:08:20;10.02;;;4.95;;
18796;SDS011;9526;52.612;13.300;2023-08-31T05:10:44;7.03;;;5.18;;
18796;SDS011;9526;52.612;13.300;2023-08-31T05:13:08;7.28;;;5.07;;
18796;SDS011;9526;52.612;13.300;2023-08-31T05:15:32;9.07;;;5.05;;
18796;SDS011;9526;52.612;13.300;2023-08-31T05:17:56;7.72;;;5.10;;
18796;SDS011;9526;52.612;13.300;2023-08-31T05:20:21;11.95;;;5.45;;
18796;SDS011;9526;52.612;13.300;2023-08-31T05:22:45;7.63;;;5.28;;
18796;SDS011;9526;52.612;13.300;2023-08-31T05:25:08;11.65;;;5.60;;
18796;SDS011;9526;52.612;13.300;2023-08-31T05:27:32;8.73;;;5.40;;
18796;SDS011;9526;52.612;13.300;2023-08-31T05:29:56;9.23;;;5.28;;
18796;SDS011;9526;52.612;13.300;2023-08-31T05:32:19;11.52;;;5.70;;
18796;SDS011;9526;52.612;13.300;2023-08-31T05:34:43;7.82;;;5.30;;
18796;SDS011;9526;52.612;13.300;2023-08-31T05:37:08;7.95;;;5.35;;
18796;SDS011;9526;52.612;13.300;2023-08-31T05:39:32;10.10;;;5.78;;
18796;SDS011;9526;52.612;13.300;2023-08-31T05:41:55;7.55;;;5.50;;
18796;SDS011;9526;52.612;13.300;2023-08-31T05:44:21;9.00;;;5.40;;
18796;SDS011;9526;52.612;13.300;2023-08-31T05:46:45;8.20;;;5.60;;
18796;SDS011;9526;52.612;13.300;2023-08-31T05:49:09;9.73;;;6.00;;
18796;SDS011;9526;52.612;13.300;2023-08-31T05:51:32;10.10;;;6.20;;
18796;SDS011;9526;52.612;13.300;2023-08-31T05:53:58;11.48;;;5.85;;
18796;SDS011;9526;52.612;13.300;2023-08-31T05:56:21;10.85;;;5.80;;
18796;SDS011;9526;52.612;13.300;2023-08-31T05:58:45;9.02;;;6.00;;
18796;SDS011;9526;52.612;13.300;2023-08-31T06:01:09;8.27;;;5.57;;
18796;SDS011;9526;52.612;13.300;2023-08-31T06:03:32;8.88;;;6.30;;
18796;SDS011;9526;52.612;13.300;2023-08-31T06:05:57;8.98;;;6.13;;
18796;SDS011;9526;52.612;13.300;2023-08-31T06:08:21;8.82;;;5.50;;
18796;SDS011;9526;52.612;13.300;2023-08-31T06:10:46;8.80;;;6.05;;
18796;SDS011;9526;52.612;13.300;2023-08-31T06:13:10;9.20;;;5.60;;
18796;SDS011;9526;52.612;13.300;2023-08-31T06:15:34;22.85;;;7.32;;
18796;SDS011;9526;52.612;13.300;2023-08-31T06:17:58;10.75;;;5.78;;
18796;SDS011;9526;52.612;13.300;2023-08-31T06:20:22;9.98;;;6.32;;
18796;SDS011;9526;52.612;13.300;2023-08-31T06:22:45;9.70;;;6.10;;
18796;SDS011;9526;52.612;13.300;2023-08-31T06:25:09;9.18;;;5.72;;
18796;SDS011;9526;52.612;13.300;2023-08-31T06:27:34;8.98;;;6.20;;
18796;SDS011;9526;52.612;13.300;2023-08-31T06:29:58;8.63;;;5.80;;
18796;SDS011;9526;52.612;13.300;2023-08-31T06:32:21;9.98;;;5.53;;
18796;SDS011;9526;52.612;13.300;2023-08-31T06:34:45;8.32;;;5.43;;
18796;SDS011;9526;52.612;13.300;2023-08-31T06:37:09;11.60;;;6.47;;
18796;SDS011;9526;52.612;13.300;2023-08-31T06:39:33;9.05;;;5.97;;
18796;SDS011;9526;52.612;13.300;2023-08-31T06:41:57;15.80;;;6.78;;
18796;SDS011;9526;52.612;13.300;2023-08-31T06:44:25;14.40;;;5.93;;
18796;SDS011;9526;52.612;13.300;2023-08-31T06:46:50;8.23;;;5.70;;
18796;SDS011;9526;52.612;13.300;2023-08-31T06:49:14;9.63;;;6.35;;
18796;SDS011;9526;52.612;13.300;2023-08-31T06:51:38;13.65;;;6.10;;
18796;SDS011;9526;52.612;13.300;2023-08-31T06:54:01;10.55;;;5.57;;
18796;SDS011;9526;52.612;13.300;2023-08-31T06:56:27;9.15;;;6.05;;
18796;SDS011;9526;52.612;13.300;2023-08-31T06:58:51;7.72;;;5.28;;
18796;SDS011;9526;52.612;13.300;2023-08-31T07:01:16;8.15;;;5.75;;
18796;SDS011;9526;52.612;13.300;2023-08-31T07:03:40;9.85;;;5.65;;
18796;SDS011;9526;52.612;13.300;2023-08-31T07:06:03;8.02;;;5.15;;
18796;SDS011;9526;52.612;13.300;2023-08-31T07:08:27;8.10;;;5.43;;
18796;SDS011;9526;52.612;13.300;2023-08-31T07:10:52;11.23;;;5.90;;
18796;SDS011;9526;52.612;13.300;2023-08-31T07:13:15;11.10;;;5.68;;
18796;SDS011;9526;52.612;13.300;2023-08-31T07:15:39;9.77;;;5.32;;
18796;SDS011;9526;52.612;13.300;2023-08-31T07:18:04;9.13;;;5.40;;
18796;SDS011;9526;52.612;13.300;2023-08-31T07:20:29;9.82;;;5.00;;
18796;SDS011;9526;52.612;13.300;2023-08-31T07:22:52;8.90;;;5.35;;
18796;SDS011;9526;52.612;13.300;2023-08-31T07:25:16;9.40;;;5.93;;
18796;SDS011;9526;52.612;13.300;2023-08-31T07:27:40;6.90;;;5.05;;
18796;SDS011;9526;52.612;13.300;2023-08-31T07:30:04;8.00;;;4.95;;
18796;SDS011;9526;52.612;13.300;2023-08-31T07:32:29;7.10;;;4.50;;
18796;SDS011;9526;52.612;13.300;2023-08-31T07:34:54;6.63;;;4.57;;
18796;SDS011;9526;52.612;13.300;2023-08-31T07:37:18;5.47;;;3.97;;
18796;SDS011;9526;52.612;13.300;2023-08-31T07:39:42;8.75;;;4.45;;
18796;SDS011;9526;52.612;13.300;2023-08-31T07:42:06;7.57;;;3.88;;
18796;SDS011;9526;52.612;13.300;2023-08-31T07:44:30;7.47;;;3.80;;
18796;SDS011;9526;52.612;13.300;2023-08-31T07:46:53;9.23;;;4.10;;
18796;SDS011;9526;52.612;13.300;2023-08-31T07:49:17;5.22;;;3.95;;
18796;SDS011;9526;52.612;13.300;2023-08-31T07:51:42;4.93;;;3.33;;
18796;SDS011;9526;52.612;13.300;2023-08-31T07:54:06;5.80;;;3.75;;
18796;SDS011;9526;52.612;13.300;2023-08-31T07:56:29;9.45;;;3.38;;
18796;SDS011;9526;52.612;13.300;2023-08-31T07:58:53;6.20;;;3.38;;
18796;SDS011;9526;52.612;13.300;2023-08-31T08:01:17;6.05;;;3.55;;
18796;SDS011;9526;52.612;13.300;2023-08-31T08:03:40;4.40;;;3.17;;
18796;SDS011;9526;52.612;13.300;2023-08-31T08:06:04;7.43;;;3.15;;
18796;SDS011;9526;52.612;13.300;2023-08-31T08:08:30;5.65;;;2.83;;
18796;SDS011;9526;52.612;13.300;2023-08-31T08:10:54;7.38;;;3.47;;
18796;SDS011;9526;52.612;13.300;2023-08-31T08:13:18;6.40;;;2.83;;
18796;SDS011;9526;52.612;13.300;2023-08-31T08:15:42;6.40;;;2.83;;
18796;SDS011;9526;52.612;13.300;2023-08-31T08:18:05;3.25;;;2.35;;
18796;SDS011;9526;52.612;13.300;2023-08-31T08:20:29;7.40;;;2.60;;
18796;SDS011;9526;52.612;13.300;2023-08-31T08:22:54;6.50;;;2.80;;
18796;SDS011;9526;52.612;13.300;2023-08-31T08:25:20;3.88;;;2.35;;
18796;SDS011;9526;52.612;13.300;2023-08-31T08:27:44;9.02;;;2.47;;
18796;SDS011;9526;52.612;13.300;2023-08-31T08:30:08;3.35;;;2.28;;
18796;SDS011;9526;52.612;13.300;2023-08-31T08:32:32;4.10;;;2.35;;
18796;SDS011;9526;52.612;13.300;2023-08-31T08:34:56;4.90;;;2.38;;
18796;SDS011;9526;52.612;13.300;2023-08-31T08:37:20;2.78;;;1.73;;
18796;SDS011;9526;52.612;13.300;2023-08-31T08:39:47;6.05;;;2.05;;
18796;SDS011;9526;52.612;13.300;2023-08-31T08:42:15;4.78;;;2.17;;
18796;SDS011;9526;52.612;13.300;2023-08-31T08:44:42;4.43;;;2.00;;
18796;SDS011;9526;52.612;13.300;2023-08-31T08:47:06;5.00;;;1.90;;
18796;SDS011;9526;52.612;13.300;2023-08-31T08:49:31;5.07;;;1.77;;
18796;SDS011;9526;52.612;13.300;2023-08-31T08:51:55;2.92;;;1.67;;
18796;SDS011;9526;52.612;13.300;2023-08-31T08:54:18;3.05;;;1.58;;
18796;SDS011;9526;52.612;13.300;2023-08-31T08:56:45;3.15;;;1.92;;
18796;SDS011;9526;52.612;13.300;2023-08-31T08:59:10;6.93;;;1.67;;
18796;SDS011;9526;52.612;13.300;2023-08-31T09:01:35;4.05;;;1.88;;
18796;SDS011;9526;52.612;13.300;2023-08-31T09:03:59;4.45;;;1.80;;
18796;SDS011;9526;52.612;13.300;2023-08-31T09:06:22;2.55;;;1.50;;
18796;SDS011;9526;52.612;13.300;2023-08-31T09:08:54;3.08;;;1.15;;
18796;SDS011;9526;52.612;13.300;2023-08-31T09:11:21;2.25;;;1.20;;
18796;SDS011;9526;52.612;13.300;2023-08-31T09:13:46;2.65;;;1.42;;
18796;SDS011;9526;52.612;13.300;2023-08-31T09:16:13;5.07;;;1.35;;
18796;SDS011;9526;52.612;13.300;2023-08-31T09:18:48;7.40;;;2.53;;
18796;SDS011;9526;52.612;13.300;2023-08-31T09:21:12;2.60;;;1.20;;
18796;SDS011;9526;52.612;13.300;2023-08-31T09:23:35;6.03;;;1.70;;
18796;SDS011;9526;52.612;13.300;2023-08-31T09:25:59;1.80;;;1.20;;
18796;SDS011;9526;52.612;13.300;2023-08-31T09:28:23;3.35;;;1.17;;
18796;SDS011;9526;52.612;13.300;2023-08-31T09:30:49;2.33;;;1.17;;
18796;SDS011;9526;52.612;13.300;2023-08-31T09:33:16;2.83;;;1.38;;
18796;SDS011;9526;52.612;13.300;2023-08-31T09:35:46;3.85;;;1.55;;
18796;SDS011;9526;52.612;13.300;2023-08-31T09:38:13;5.05;;;1.65;;
18796;SDS011;9526;52.612;13.300;2023-08-31T09:40:37;4.70;;;1.60;;
18796;SDS011;9526;52.612;13.300;2023-08-31T09:43:03;1.92;;;1.38;;
18796;SDS011;9526;52.612;13.300;2023-08-31T09:45:28;1.40;;;1.13;;
18796;SDS011;9526;52.612;13.300;2023-08-31T09:48:06;5.25;;;1.50;;
18796;SDS011;9526;52.612;13.300;2023-08-31T09:50:33;3.80;;;1.60;;
18796;SDS011;9526;52.612;13.300;2023-08-31T09:52:58;1.90;;;1.25;;
18796;SDS011;9526;52.612;13.300;2023-08-31T09:55:25;6.03;;;1.30;;
18796;SDS011;9526;52.612;13.300;2023-08-31T09:57:52;2.75;;;1.30;;
18796;SDS011;9526;52.612;13.300;2023-08-31T10:00:35;4.97;;;1.30;;
18796;SDS011;9526;52.612;13.300;2023-08-31T10:03:00;2.65;;;1.00;;
18796;SDS011;9526;52.612;13.300;2023-08-31T10:05:27;3.55;;;1.65;;
18796;SDS011;9526;52.612;13.300;2023-08-31T10:07:53;2.85;;;1.35;;
18796;SDS011;9526;52.612;13.300;2023-08-31T10:10:17;1.85;;;1.25;;
18796;SDS011;9526;52.612;13.300;2023-08-31T10:12:44;1.42;;;1.00;;
18796;SDS011;9526;52.612;13.300;2023-08-31T10:15:08;2.35;;;1.15;;
18796;SDS011;9526;52.612;13.300;2023-08-31T10:17:33;3.72;;;1.20;;
18796;SDS011;9526;52.612;13.300;2023-08-31T10:19:57;4.10;;;1.40;;
18796;SDS011;9526;52.612;13.300;2023-08-31T10:22:21;2.13;;;1.30;;
18796;SDS011;9526;52.612;13.300;2023-08-31T10:24:58;2.55;;;1.27;;
18796;SDS011;9526;52.612;13.300;2023-08-31T10:27:27;6.95;;;3.42;;
18796;SDS011;9526;52.612;13.300;2023-08-31T10:29:51;3.88;;;1.60;;
18796;SDS011;9526;52.612;13.300;2023-08-31T10:32:16;3.35;;;1.48;;
18796;SDS011;9526;52.612;13.300;2023-08-31T10:34:40;6.65;;;1.50;;
18796;SDS011;9526;52.612;13.300;2023-08-31T10:37:19;3.13;;;1.30;;
18796;SDS011;9526;52.612;13.300;2023-08-31T10:39:44;2.28;;;1.65;;
18796;SDS011;9526;52.612;13.300;2023-08-31T10:42:09;2.90;;;1.50;;
18796;SDS011;9526;52.612;13.300;2023-08-31T10:44:33;3.65;;;1.42;;
18796;SDS011;9526;52.612;13.300;2023-08-31T10:46:59;2.10;;;1.20;;
18796;SDS011;9526;52.612;13.300;2023-08-31T10:49:25;3.40;;;1.27;;
18796;SDS011;9526;52.612;13.300;2023-08-31T10:51:50;3.17;;;1.27;;
18796;SDS011;9526;52.612;13.300;2023-08-31T10:54:22;3.42;;;1.00;;
18796;SDS011;9526;52.612;13.300;2023-08-31T10:59:42;3.05;;;1.20;;
18796;SDS011;9526;52.612;13.300;2023-08-31T11:02:26;3.30;;;1.02;;
18796;SDS011;9526;52.612;13.300;2023-08-31T11:04:59;4.95;;;1.55;;
18796;SDS011;9526;52.612;13.300;2023-08-31T11:07:27;1.58;;;1.20;;
18796;SDS011;9526;52.612;13.300;2023-08-31T11:09:51;5.82;;;1.40;;
18796;SDS011;9526;52.612;13.300;2023-08-31T11:12:29;2.88;;;1.33;;
18796;SDS011;9526;52.612;13.300;2023-08-31T11:14:56;3.38;;;1.20;;
18796;SDS011;9526;52.612;13.300;2023-08-31T11:17:20;4.28;;;1.45;;
18796;SDS011;9526;52.612;13.300;2023-08-31T11:19:44;4.05;;;1.30;;
18796;SDS011;9526;52.612;13.300;2023-08-31T11:22:08;3.80;;;1.40;;
18796;SDS011;9526;52.612;13.300;2023-08-31T11:24:33;2.53;;;1.50;;
18796;SDS011;9526;52.612;13.300;2023-08-31T11:26:56;4.38;;;1.45;;
18796;SDS011;9526;52.612;13.300;2023-08-31T11:29:21;2.85;;;1.50;;
18796;SDS011;9526;52.612;13.300;2023-08-31T11:31:46;2.60;;;1.48;;
18796;SDS011;9526;52.612;13.300;2023-08-31T11:34:11;3.55;;;1.70;;
18796;SDS011;9526;52.612;13.300;2023-08-31T11:36:36;4.45;;;1.40;;
18796;SDS011;9526;52.612;13.300;2023-08-31T11:39:00;1.88;;;1.35;;
18796;SDS011;9526;52.612;13.300;2023-08-31T11:41:29;1.70;;;1.38;;
18796;SDS011;9526;52.612;13.300;2023-08-31T11:43:54;1.83;;;1.48;;
18796;SDS011;9526;52.612;13.300;2023-08-31T11:46:18;5.25;;;1.80;;
18796;SDS011;9526;52.612;13.300;2023-08-31T11:48:43;3.78;;;1.58;;
18796;SDS011;9526;52.612;13.300;2023-08-31T11:51:07;1.65;;;1.48;;
18796;SDS011;9526;52.612;13.300;2023-08-31T11:53:31;2.25;;;1.30;;
18796;SDS011;9526;52.612;13.300;2023-08-31T11:55:55;2.47;;;1.90;;
18796;SDS011;9526;52.612;13.300;2023-08-31T11:58:19;3.72;;;1.58;;
18796;SDS011;9526;52.612;13.300;2023-08-31T12:00:43;3.55;;;1.73;;
18796;SDS011;9526;52.612;13.300;2023-08-31T12:03:08;3.65;;;1.42;;
18796;SDS011;9526;52.612;13.300;2023-08-31T12:05:45;5.72;;;2.10;;
18796;SDS011;9526;52.612;13.300;2023-08-31T12:08:10;4.88;;;2.00;;
18796;SDS011;9526;52.612;13.300;2023-08-31T12:10:33;10.00;;;2.53;;
18796;SDS011;9526;52.612;13.300;2023-08-31T12:13:09;6.97;;;2.33;;
18796;SDS011;9526;52.612;13.300;2023-08-31T12:15:35;5.30;;;2.00;;
18796;SDS011;9526;52.612;13.300;2023-08-31T12:18:00;10.73;;;2.47;;
18796;SDS011;9526;52.612;13.300;2023-08-31T12:20:30;3.85;;;2.05;;
18796;SDS011;9526;52.612;13.300;2023-08-31T12:22:58;3.17;;;2.13;;
18796;SDS011;9526;52.612;13.300;2023-08-31T12:25:22;7.47;;;2.63;;
18796;SDS011;9526;52.612;13.300;2023-08-31T12:27:46;3.72;;;2.20;;
18796;SDS011;9526;52.612;13.300;2023-08-31T12:30:12;7.47;;;2.30;;
18796;SDS011;9526;52.612;13.300;2023-08-31T12:32:36;5.85;;;2.10;;
18796;SDS011;9526;52.612;13.300;2023-08-31T12:35:00;3.05;;;1.83;;
18796;SDS011;9526;52.612;13.300;2023-08-31T12:37:24;2.05;;;1.65;;
18796;SDS011;9526;52.612;13.300;2023-08-31T12:39:50;3.63;;;2.15;;
18796;SDS011;9526;52.612;13.300;2023-08-31T12:42:13;6.18;;;2.10;;
18796;SDS011;9526;52.612;13.300;2023-08-31T12:44:44;3.72;;;2.08;;
18796;SDS011;9526;52.612;13.300;2023-08-31T12:47:08;2.22;;;1.90;;
18796;SDS011;9526;52.612;13.300;2023-08-31T12:49:31;2.38;;;1.90;;
18796;SDS011;9526;52.612;13.300;2023-08-31T12:51:55;2.22;;;1.88;;
18796;SDS011;9526;52.612;13.300;2023-08-31T12:54:19;2.47;;;1.70;;
18796;SDS011;9526;52.612;13.300;2023-08-31T12:56:44;2.70;;;1.85;;
18796;SDS011;9526;52.612;13.300;2023-08-31T12:59:08;4.57;;;2.38;;
18796;SDS011;9526;52.612;13.300;2023-08-31T13:01:31;3.28;;;2.00;;
18796;SDS011;9526;52.612;13.300;2023-08-31T13:03:55;2.75;;;2.20;;
18796;SDS011;9526;52.612;13.300;2023-08-31T13:06:19;2.53;;;2.22;;
18796;SDS011;9526;52.612;13.300;2023-08-31T13:08:43;2.53;;;1.90;;
18796;SDS011;9526;52.612;13.300;2023-08-31T13:11:07;3.65;;;2.17;;
18796;SDS011;9526;52.612;13.300;2023-08-31T13:13:33;3.90;;;2.72;;
18796;SDS011;9526;52.612;13.300;2023-08-31T13:15:57;3.75;;;1.98;;
18796;SDS011;9526;52.612;13.300;2023-08-31T13:18:21;3.28;;;2.10;;
18796;SDS011;9526;52.612;13.300;2023-08-31T13:20:50;4.00;;;2.25;;
18796;SDS011;9526;52.612;13.300;2023-08-31T13:23:15;4.68;;;2.33;;
18796;SDS011;9526;52.612;13.300;2023-08-31T13:25:38;2.92;;;2.30;;
18796;SDS011;9526;52.612;13.300;2023-08-31T13:28:02;3.75;;;2.15;;
18796;SDS011;9526;52.612;13.300;2023-08-31T13:30:28;4.13;;;2.00;;
18796;SDS011;9526;52.612;13.300;2023-08-31T13:32:53;3.05;;;2.10;;
18796;SDS011;9526;52.612;13.300;2023-08-31T13:35:17;3.88;;;1.90;;
18796;SDS011;9526;52.612;13.300;2023-08-31T13:37:41;2.22;;;1.92;;
18796;SDS011;9526;52.612;13.300;2023-08-31T13:40:05;3.30;;;1.65;;
18796;SDS011;9526;52.612;13.300;2023-08-31T13:42:33;3.08;;;1.70;;
18796;SDS011;9526;52.612;13.300;2023-08-31T13:44:59;1.92;;;1.40;;
18796;SDS011;9526;52.612;13.300;2023-08-31T13:47:26;3.20;;;1.48;;
18796;SDS011;9526;52.612;13.300;2023-08-31T13:49:50;2.75;;;1.77;;
18796;SDS011;9526;52.612;13.300;2023-08-31T13:52:13;1.77;;;1.60;;
18796;SDS011;9526;52.612;13.300;2023-08-31T13:54:38;1.40;;;1.30;;
18796;SDS011;9526;52.612;13.300;2023-08-31T13:57:01;3.25;;;1.55;;
18796;SDS011;9526;52.612;13.300;2023-08-31T13:59:25;2.28;;;1.50;;
18796;SDS011;9526;52.612;13.300;2023-08-31T14:01:50;1.50;;;1.40;;
18796;SDS011;9526;52.612;13.300;2023-08-31T14:04:15;2.22;;;1.40;;
18796;SDS011;9526;52.612;13.300;2023-08-31T14:06:38;1.92;;;1.20;;
18796;SDS011;9526;52.612;13.300;2023-08-31T14:09:02;1.67;;;1.30;;
18796;SDS011;9526;52.612;13.300;2023-08-31T14:11:26;3.80;;;1.23;;
18796;SDS011;9526;52.612;13.300;2023-08-31T14:13:51;3.85;;;1.40;;
18796;SDS011;9526;52.612;13.300;2023-08-31T14:16:15;2.97;;;1.88;;
18796;SDS011;9526;52.612;13.300;2023-08-31T14:18:39;2.25;;;1.48;;
18796;SDS011;9526;52.612;13.300;2023-08-31T14:21:04;4.15;;;2.00;;
18796;SDS011;9526;52.612;13.300;2023-08-31T14:23:28;4.45;;;1.92;;
18796;SDS011;9526;52.612;13.300;2023-08-31T14:25:52;3.95;;;1.80;;
18796;SDS011;9526;52.612;13.300;2023-08-31T14:28:16;2.03;;;1.63;;
18796;SDS011;9526;52.612;13.300;2023-08-31T14:30:40;1.10;;;1.00;;
18796;SDS011;9526;52.612;13.300;2023-08-31T14:33:03;4.00;;;1.40;;
18796;SDS011;9526;52.612;13.300;2023-08-31T14:35:28;1.92;;;1.40;;
18796;SDS011;9526;52.612;13.300;2023-08-31T14:37:53;3.72;;;1.30;;